createdAt,value
2022-12-09T00:04:19.833Z,8
2022-12-09T00:09:22.061Z,5
2022-12-09T00:14:23.788Z,9
2022-12-09T00:19:25.650Z,8
2022-12-09T00:24:27.303Z,9
2022-12-09T00:29:29.154Z,8
2022-12-09T00:34:30.769Z,8
2022-12-09T00:39:32.367Z,8
2022-12-09T00:44:33.995Z,8
2022-12-09T00:49:35.775Z,9
2022-12-09T00:54:37.665Z,8
2022-12-09T00:59:39.556Z,8
2022-12-09T01:04:41.332Z,8
2022-12-09T01:09:43.274Z,9
2022-12-09T01:14:45.062Z,9
2022-12-09T01:19:46.733Z,8
2022-12-09T01:24:48.541Z,8
2022-12-09T01:29:50.209Z,11
2022-12-09T01:34:52.074Z,9
2022-12-09T01:39:53.797Z,8
2022-12-09T01:44:55.608Z,8
2022-12-09T01:49:57.292Z,8
2022-12-09T01:54:59.102Z,8
2022-12-09T02:00:00.735Z,6
2022-12-09T02:05:02.656Z,9
2022-12-09T02:10:05.357Z,11
2022-12-09T02:15:07.669Z,8
2022-12-09T02:20:09.690Z,11
2022-12-09T02:25:11.502Z,9
2022-12-09T02:30:13.629Z,9
2022-12-09T02:35:15.554Z,9
2022-12-09T02:40:17.443Z,8
2022-12-09T02:45:19.112Z,9
2022-12-09T02:50:21.013Z,8
2022-12-09T02:55:23.684Z,8
2022-12-09T03:00:25.231Z,11
2022-12-09T03:05:27.251Z,9
2022-12-09T03:10:29.145Z,8
2022-12-09T03:15:30.764Z,9
2022-12-09T03:20:32.375Z,11
2022-12-09T03:25:33.966Z,12
2022-12-09T03:30:36.157Z,9
2022-12-09T03:35:37.770Z,9
2022-12-09T03:40:39.474Z,8
2022-12-09T03:45:41.217Z,11
2022-12-09T03:50:43.422Z,12
2022-12-09T03:55:45.207Z,26
2022-12-09T04:00:46.993Z,12
2022-12-09T04:05:48.951Z,16
2022-12-09T04:10:50.843Z,15
2022-12-09T04:15:52.943Z,19
2022-12-09T04:20:55.028Z,12
2022-12-09T04:25:56.722Z,13
2022-12-09T04:30:58.797Z,15
2022-12-09T04:36:00.488Z,17
2022-12-09T04:41:02.435Z,14
2022-12-09T04:46:04.107Z,13
2022-12-09T04:51:05.881Z,17
2022-12-09T04:56:07.839Z,15
2022-12-09T05:01:09.848Z,17
2022-12-09T05:06:11.752Z,17
2022-12-09T05:11:13.971Z,20
2022-12-09T05:16:16.960Z,15
2022-12-09T05:21:19.339Z,13
2022-12-09T05:26:21.460Z,19
2022-12-09T05:31:23.691Z,13
2022-12-09T05:36:25.733Z,14
2022-12-09T05:41:28.014Z,18
2022-12-09T05:46:29.904Z,17
2022-12-09T05:51:31.887Z,18
2022-12-09T05:56:33.736Z,16
2022-12-09T06:01:36.014Z,17
2022-12-09T06:06:37.959Z,17
2022-12-09T06:11:40.222Z,18
2022-12-09T06:16:42.407Z,14
2022-12-09T06:21:44.329Z,14
2022-12-09T06:26:46.079Z,16
2022-12-09T06:31:48.145Z,14
2022-12-09T06:36:49.868Z,12
2022-12-09T06:41:51.556Z,13
2022-12-09T06:46:53.375Z,16
2022-12-09T06:51:55.778Z,18
2022-12-09T06:56:57.776Z,18
2022-12-09T07:01:59.779Z,14
2022-12-09T07:07:03.515Z,18
2022-12-09T07:12:06.087Z,17
2022-12-09T07:17:07.876Z,14
2022-12-09T07:22:10.279Z,12
2022-12-09T07:27:17.254Z,11
2022-12-09T07:32:21.412Z,12
2022-12-09T07:37:23.286Z,11
2022-12-09T07:42:25.219Z,13
2022-12-09T07:47:27.186Z,10
2022-12-09T07:52:28.963Z,14
2022-12-09T07:57:30.584Z,11
2022-12-09T08:02:32.469Z,11
2022-12-09T08:07:38.670Z,13
2022-12-09T08:12:44.351Z,14
2022-12-09T08:17:46.398Z,12
2022-12-09T08:22:48.216Z,12
2022-12-09T08:27:49.927Z,13
2022-12-09T08:32:51.770Z,14
2022-12-09T08:37:54.003Z,13
2022-12-09T08:42:55.652Z,14
2022-12-09T08:47:57.320Z,13
2022-12-09T08:52:59.698Z,13
2022-12-09T08:58:01.528Z,13
2022-12-09T09:03:03.799Z,13
2022-12-09T09:08:06.037Z,13
2022-12-09T09:13:08.307Z,14
2022-12-09T09:18:10.291Z,14
2022-12-09T09:23:12.610Z,13
2022-12-09T09:28:14.357Z,13
2022-12-09T09:33:16.165Z,11
2022-12-09T09:38:18.198Z,13
2022-12-09T09:43:20.140Z,15
2022-12-09T09:48:22.270Z,13
2022-12-09T09:53:24.083Z,13
2022-12-09T09:58:26.270Z,16
2022-12-09T10:03:28.353Z,14
2022-12-09T10:08:31.295Z,14
2022-12-09T10:13:33.317Z,14
2022-12-09T10:18:36.204Z,13
2022-12-09T10:23:38.065Z,12
2022-12-09T10:28:39.862Z,10
2022-12-09T10:33:42.125Z,11
2022-12-09T10:38:44.654Z,12
2022-12-09T10:43:46.659Z,13
2022-12-09T10:48:49.049Z,13
2022-12-09T10:53:50.999Z,13
2022-12-09T10:58:52.899Z,12
2022-12-09T11:03:54.765Z,12
2022-12-09T11:08:56.931Z,12
2022-12-09T11:13:58.973Z,12
2022-12-09T11:19:00.955Z,13
2022-12-09T11:24:03.650Z,13
2022-12-09T11:29:06.206Z,16
2022-12-09T11:34:08.409Z,14
2022-12-09T11:39:10.089Z,13
2022-12-09T11:44:11.762Z,11
2022-12-09T11:49:13.339Z,12
2022-12-09T11:54:15.020Z,13
2022-12-09T11:59:16.646Z,16
2022-12-09T12:04:18.288Z,16
2022-12-09T12:09:19.894Z,16
2022-12-09T12:14:21.590Z,14
2022-12-09T12:19:23.188Z,14
2022-12-09T12:24:24.778Z,14
2022-12-09T12:29:26.416Z,13
2022-12-09T12:34:28.066Z,13
2022-12-09T12:39:29.670Z,11
2022-12-09T12:44:31.297Z,13
2022-12-09T12:49:32.913Z,16
2022-12-09T12:54:34.488Z,14
2022-12-09T12:59:36.243Z,16
2022-12-09T13:04:37.827Z,13
2022-12-09T13:09:39.503Z,10
2022-12-09T13:14:41.151Z,14
2022-12-09T13:19:43.027Z,13
2022-12-09T13:24:44.657Z,17
2022-12-09T13:29:46.420Z,15
2022-12-09T13:34:48.046Z,15
2022-12-09T13:39:49.671Z,14
2022-12-09T13:44:51.439Z,13
2022-12-09T13:49:53.071Z,18
2022-12-09T13:54:54.620Z,17
2022-12-09T13:59:56.186Z,16
2022-12-09T14:04:57.788Z,18
2022-12-09T14:09:59.389Z,14
2022-12-09T14:15:01.007Z,15
2022-12-09T14:20:02.622Z,17
2022-12-09T14:25:04.184Z,18
2022-12-09T14:30:06.403Z,14
2022-12-09T14:35:08.298Z,14
2022-12-09T14:40:10.464Z,14
2022-12-09T14:45:12.440Z,17
2022-12-09T14:50:14.128Z,14
2022-12-09T14:55:15.772Z,14
2022-12-09T15:00:17.459Z,14
2022-12-09T15:05:19.165Z,17
2022-12-09T15:10:20.787Z,14
2022-12-09T15:15:22.391Z,14
2022-12-09T15:20:24.065Z,17
2022-12-09T15:25:25.717Z,18
2022-12-09T15:30:27.320Z,18
2022-12-09T15:35:28.956Z,22
2022-12-09T15:40:30.582Z,18
2022-12-09T15:45:32.212Z,21
2022-12-09T15:50:33.807Z,20
2022-12-09T15:55:35.472Z,18
2022-12-09T16:00:37.108Z,0
2022-12-09T16:05:42.073Z,21
2022-12-09T16:10:44.174Z,20
2022-12-09T16:15:46.232Z,21
2022-12-09T16:20:47.880Z,23
2022-12-09T16:25:49.627Z,18
2022-12-09T16:30:51.328Z,19
2022-12-09T16:35:52.923Z,22
2022-12-09T16:40:54.524Z,22
2022-12-09T16:45:56.307Z,21
2022-12-09T16:50:58.011Z,21
2022-12-09T16:55:59.697Z,19
2022-12-09T17:01:01.366Z,23
2022-12-09T17:06:03.029Z,24
2022-12-09T17:11:04.592Z,21
2022-12-09T17:16:06.298Z,20
2022-12-09T17:21:08.009Z,22
2022-12-09T17:26:09.627Z,19
2022-12-09T17:31:11.237Z,14
2022-12-09T17:36:12.961Z,16
2022-12-09T17:41:14.580Z,19
2022-12-09T17:46:16.333Z,23
2022-12-09T17:51:18.184Z,19
2022-12-09T17:56:19.890Z,23
2022-12-09T18:01:21.690Z,21
2022-12-09T18:06:23.346Z,15
2022-12-09T18:11:24.953Z,18
2022-12-09T18:16:26.667Z,17
2022-12-09T18:21:28.460Z,17
2022-12-09T18:26:31.992Z,17
2022-12-09T18:31:35.760Z,15
2022-12-09T18:36:37.406Z,18
2022-12-09T18:41:39.158Z,24
2022-12-09T18:46:40.822Z,20
2022-12-09T18:51:42.505Z,18
2022-12-09T18:56:44.106Z,18
2022-12-09T19:01:45.752Z,21
2022-12-09T19:06:47.600Z,19
2022-12-09T19:11:49.291Z,21
2022-12-09T19:16:50.909Z,21
2022-12-09T19:21:52.543Z,22
2022-12-09T19:26:54.171Z,21
2022-12-09T19:31:55.813Z,18
2022-12-09T19:36:57.451Z,19
2022-12-09T19:41:59.050Z,23
2022-12-09T19:47:00.747Z,23
2022-12-09T19:52:02.369Z,17
2022-12-09T19:57:04.010Z,18
2022-12-09T20:02:05.730Z,18
2022-12-09T20:07:08.253Z,21
2022-12-09T20:12:10.152Z,17
2022-12-09T20:17:11.765Z,14
2022-12-09T20:22:13.354Z,18
2022-12-09T20:27:14.982Z,17
2022-12-09T20:32:16.612Z,14
2022-12-09T20:37:18.466Z,23
2022-12-09T20:42:20.077Z,21
2022-12-09T20:47:21.676Z,19
2022-12-09T20:52:23.287Z,17
2022-12-09T20:57:24.959Z,18
2022-12-09T21:02:26.671Z,18
2022-12-09T21:07:28.266Z,18
2022-12-09T21:12:29.987Z,17
2022-12-09T21:17:31.654Z,19
2022-12-09T21:22:33.340Z,17
2022-12-09T21:27:34.982Z,21
2022-12-09T21:32:36.608Z,17
2022-12-09T21:37:38.221Z,18
2022-12-09T21:42:39.843Z,20
2022-12-09T21:47:41.511Z,19
2022-12-09T21:52:43.189Z,13
2022-12-09T21:57:44.799Z,17
2022-12-09T22:02:46.449Z,12
2022-12-09T22:07:48.168Z,13
2022-12-09T22:12:49.832Z,16
2022-12-09T22:17:51.469Z,13
2022-12-09T22:22:53.058Z,14
2022-12-09T22:27:54.815Z,14
2022-12-09T22:32:56.479Z,14
2022-12-09T22:37:59.338Z,14
2022-12-09T22:43:01.095Z,17
2022-12-09T22:48:02.878Z,16
2022-12-09T22:53:04.503Z,13
2022-12-09T22:58:06.135Z,13
2022-12-09T23:03:07.850Z,10
2022-12-09T23:08:09.615Z,13
2022-12-09T23:13:11.279Z,14
2022-12-09T23:18:12.949Z,12
2022-12-09T23:23:14.587Z,16
2022-12-09T23:28:16.199Z,16
2022-12-09T23:33:17.826Z,16
2022-12-09T23:38:19.719Z,16
2022-12-09T23:43:21.359Z,13
2022-12-09T23:48:22.968Z,13
2022-12-09T23:53:24.577Z,14
2022-12-09T23:58:26.203Z,13
